createdAt,value
2022-11-14T00:00:55.058Z,2.62
2022-11-14T00:05:51.675Z,2.58
2022-11-14T00:10:49.781Z,2.58
2022-11-14T00:15:50.304Z,2.46
2022-11-14T00:20:50.941Z,2.51
2022-11-14T00:25:47.605Z,2.43
2022-11-14T00:30:48.651Z,2.40
2022-11-14T00:35:55.754Z,2.41
2022-11-14T00:40:52.199Z,2.30
2022-11-14T00:45:48.643Z,2.19
2022-11-14T00:50:45.135Z,2.23
2022-11-14T00:55:42.718Z,2.20
2022-11-14T01:00:39.375Z,2.29
2022-11-14T01:05:48.111Z,2.32
2022-11-14T01:10:49.280Z,2.28
2022-11-14T01:15:48.345Z,2.22
2022-11-14T01:20:46.434Z,2.19
2022-11-14T01:25:43.612Z,2.20
2022-11-14T01:30:40.365Z,2.16
2022-11-14T01:35:38.003Z,2.13
2022-11-14T01:40:34.554Z,2.04
2022-11-14T01:45:57.644Z,2.02
2022-11-14T01:51:01.788Z,1.95
2022-11-14T01:56:00.745Z,1.98
2022-11-14T02:00:57.833Z,1.92
2022-11-14T02:05:55.597Z,1.87
2022-11-14T02:10:51.959Z,1.87
2022-11-14T02:15:48.361Z,1.90
2022-11-14T02:20:44.856Z,1.94
2022-11-14T02:25:41.389Z,1.89
2022-11-14T02:30:37.852Z,1.75
2022-11-14T02:35:34.199Z,1.76
2022-11-14T02:40:30.729Z,1.74
2022-11-14T02:45:27.654Z,1.78
2022-11-14T02:50:24.005Z,1.68
2022-11-14T02:55:21.885Z,1.71
2022-11-14T03:00:19.048Z,1.71
2022-11-14T03:05:15.597Z,1.83
2022-11-14T03:10:13.854Z,1.61
2022-11-14T03:15:10.819Z,1.60
2022-11-14T03:20:08.081Z,1.57
2022-11-14T03:25:04.917Z,1.63
2022-11-14T03:30:01.380Z,1.67
2022-11-14T03:34:58.821Z,1.70
2022-11-14T03:39:55.177Z,1.76
2022-11-14T03:44:51.593Z,1.68
2022-11-14T03:49:47.978Z,1.68
2022-11-14T03:54:44.348Z,1.61
2022-11-14T03:59:40.706Z,1.62
2022-11-14T04:04:37.086Z,1.69
2022-11-14T04:09:33.438Z,1.71
2022-11-14T04:14:29.883Z,1.77
2022-11-14T04:19:26.227Z,1.82
2022-11-14T04:24:22.661Z,1.85
2022-11-14T04:29:19.068Z,1.96
2022-11-14T04:34:15.517Z,1.86
2022-11-14T04:39:11.868Z,1.81
2022-11-14T04:44:08.670Z,1.74
2022-11-14T04:49:05.059Z,1.70
2022-11-14T04:54:01.515Z,1.65
2022-11-14T04:58:57.881Z,1.72
2022-11-14T05:03:54.279Z,1.62
2022-11-14T05:08:50.630Z,1.61
2022-11-14T05:13:47.332Z,1.57
2022-11-14T05:18:46.986Z,1.49
2022-11-14T05:23:43.620Z,1.50
2022-11-14T05:28:40.054Z,1.51
2022-11-14T05:33:36.929Z,1.58
2022-11-14T05:38:34.091Z,1.58
2022-11-14T05:43:30.622Z,1.55
2022-11-14T05:48:27.911Z,1.55
2022-11-14T05:53:26.029Z,1.58
2022-11-14T05:58:22.761Z,1.58
2022-11-14T06:03:19.161Z,1.51
2022-11-14T06:08:15.604Z,1.55
2022-11-14T06:13:11.951Z,1.52
2022-11-14T06:18:08.349Z,1.52
2022-11-14T06:23:04.717Z,1.46
2022-11-14T06:28:01.078Z,1.42
2022-11-14T06:32:59.244Z,1.51
2022-11-14T06:37:55.671Z,1.59
2022-11-14T06:42:55.605Z,1.77
2022-11-14T06:47:52.044Z,1.72
2022-11-14T06:52:48.388Z,1.63
2022-11-14T06:57:44.724Z,1.67
2022-11-14T07:02:45.912Z,1.72
2022-11-14T07:07:42.264Z,1.97
2022-11-14T07:12:38.677Z,1.85
2022-11-14T07:17:36.246Z,1.86
2022-11-14T07:22:32.602Z,1.94
2022-11-14T07:27:29.406Z,1.96
2022-11-14T07:32:25.763Z,2.44
2022-11-14T07:37:22.180Z,3.16
2022-11-14T07:42:18.696Z,3.64
2022-11-14T07:47:15.127Z,4.00
2022-11-14T07:52:11.477Z,4.32
2022-11-14T07:57:07.842Z,4.56
2022-11-14T08:02:04.552Z,4.69
2022-11-14T08:07:01.059Z,4.84
2022-11-14T08:11:57.470Z,4.99
2022-11-14T08:16:53.834Z,5.15
2022-11-14T08:21:50.287Z,5.31
2022-11-14T08:26:46.695Z,5.49
2022-11-14T08:31:43.051Z,5.55
2022-11-14T08:36:39.458Z,5.67
2022-11-14T08:41:35.811Z,5.73
2022-11-14T08:46:32.177Z,5.86
2022-11-14T08:51:28.528Z,6.03
2022-11-14T08:56:25.185Z,6.16
2022-11-14T09:01:21.610Z,6.32
2022-11-14T09:06:17.982Z,6.44
2022-11-14T09:11:17.998Z,6.59
2022-11-14T09:16:15.725Z,6.77
2022-11-14T09:21:12.626Z,6.85
2022-11-14T09:26:09.986Z,6.80
2022-11-14T09:31:09.869Z,6.89
2022-11-14T09:36:08.675Z,7.04
2022-11-14T09:41:31.020Z,7.24
2022-11-14T09:46:31.371Z,7.47
2022-11-14T09:51:36.132Z,7.58
2022-11-14T09:56:34.130Z,7.64
2022-11-14T10:01:49.527Z,7.77
2022-11-14T10:07:03.528Z,7.99
2022-11-14T10:12:12.967Z,8.05
2022-11-14T10:17:22.238Z,8.10
2022-11-14T10:23:01.312Z,8.11
2022-11-14T10:28:22.694Z,8.16
2022-11-14T10:33:30.529Z,8.33
2022-11-14T10:38:33.448Z,8.47
2022-11-14T10:43:32.303Z,8.44
2022-11-14T10:48:39.010Z,8.51
2022-11-14T10:53:45.569Z,8.57
2022-11-14T10:58:48.835Z,8.57
2022-11-14T11:03:46.116Z,8.61
2022-11-14T11:09:02.053Z,8.61
2022-11-14T11:14:00.980Z,8.70
2022-11-14T11:19:26.999Z,8.78
2022-11-14T11:24:35.216Z,8.82
2022-11-14T11:29:31.545Z,9.01
2022-11-14T11:34:32.497Z,9.18
2022-11-14T11:39:33.114Z,9.21
2022-11-14T11:44:40.104Z,9.19
2022-11-14T11:49:39.404Z,9.28
2022-11-14T11:55:12.101Z,9.28
2022-11-14T12:00:20.381Z,9.34
2022-11-14T12:05:22.670Z,9.41
2022-11-14T12:10:29.856Z,9.48
2022-11-14T12:15:40.974Z,9.59
2022-11-14T12:20:48.260Z,9.63
2022-11-14T12:26:05.404Z,9.81
2022-11-14T12:31:04.523Z,9.84
2022-11-14T12:36:04.380Z,9.96
2022-11-14T12:41:02.008Z,10.01
2022-11-14T12:46:00.717Z,10.01
2022-11-14T12:50:58.882Z,10.02
2022-11-14T12:55:58.726Z,9.89
2022-11-14T13:00:59.821Z,9.86
2022-11-14T13:06:20.421Z,9.88
2022-11-14T13:11:59.058Z,10.00
2022-11-14T13:17:28.490Z,10.05
2022-11-14T13:22:39.273Z,10.12
2022-11-14T13:28:05.779Z,10.22
2022-11-14T13:32:53.652Z,10.37
2022-11-14T13:38:14.919Z,10.34
2022-11-14T13:43:45.008Z,10.14
2022-11-14T13:49:03.063Z,10.09
2022-11-14T13:53:59.492Z,10.02
2022-11-14T13:59:18.051Z,10.04
2022-11-14T14:04:37.911Z,9.98
2022-11-14T14:09:47.228Z,9.96
2022-11-14T14:14:53.231Z,9.88
2022-11-14T14:19:49.602Z,9.87
2022-11-14T14:25:00.081Z,9.82
2022-11-14T14:30:08.833Z,9.81
2022-11-14T14:35:37.356Z,9.77
2022-11-14T14:40:40.114Z,9.70
2022-11-14T14:45:47.318Z,9.59
2022-11-14T14:50:52.699Z,9.64
2022-11-14T14:55:54.148Z,9.59
2022-11-14T15:01:18.666Z,9.57
2022-11-14T15:06:22.706Z,9.36
2022-11-14T15:11:19.193Z,9.19
2022-11-14T15:16:16.111Z,9.06
2022-11-14T15:21:15.192Z,8.89
2022-11-14T15:26:15.545Z,8.76
2022-11-14T15:31:22.325Z,8.70
2022-11-14T15:36:18.885Z,8.60
2022-11-14T15:41:24.011Z,8.56
2022-11-14T15:46:49.949Z,8.33
2022-11-14T15:52:17.732Z,8.08
2022-11-14T15:57:16.678Z,7.97
2022-11-14T16:02:18.358Z,7.87
2022-11-14T16:07:16.793Z,7.77
2022-11-14T16:12:13.312Z,7.54
2022-11-14T16:17:14.853Z,7.57
2022-11-14T16:22:17.256Z,7.35
2022-11-14T16:27:13.643Z,7.18
2022-11-14T16:32:11.079Z,7.38
2022-11-14T16:37:12.446Z,7.11
2022-11-14T16:42:10.910Z,6.85
2022-11-14T16:47:07.279Z,6.64
2022-11-14T16:52:08.478Z,6.53
2022-11-14T16:57:04.903Z,6.51
2022-11-14T17:02:02.356Z,6.64
2022-11-14T17:06:58.876Z,6.69
2022-11-14T17:11:55.281Z,6.82
2022-11-14T17:16:51.695Z,6.78
2022-11-14T17:21:48.147Z,6.78
2022-11-14T17:26:44.487Z,6.86
2022-11-14T17:31:45.810Z,6.84
2022-11-14T17:36:43.366Z,6.85
2022-11-14T17:41:39.922Z,6.96
2022-11-14T17:46:36.653Z,7.10
2022-11-14T17:51:33.027Z,7.17
2022-11-14T17:56:29.742Z,7.07
2022-11-14T18:01:26.327Z,6.94
2022-11-14T18:06:24.246Z,7.03
2022-11-14T18:11:20.777Z,7.13
2022-11-14T18:16:19.296Z,7.14
2022-11-14T18:21:17.128Z,7.03
2022-11-14T18:26:16.122Z,7.09
2022-11-14T18:31:13.805Z,7.23
2022-11-14T18:36:12.693Z,7.41
2022-11-14T18:41:13.051Z,7.62
2022-11-14T18:46:12.707Z,7.74
2022-11-14T18:51:15.475Z,7.85
2022-11-14T18:56:14.539Z,8.00
2022-11-14T19:01:37.389Z,8.12
2022-11-14T19:06:38.629Z,8.29
2022-11-14T19:11:53.779Z,8.39
2022-11-14T19:16:50.161Z,8.53
2022-11-14T19:21:50.542Z,8.66
2022-11-14T19:26:47.206Z,8.74
2022-11-14T19:31:43.710Z,8.79
2022-11-14T19:41:56.580Z,8.83
2022-11-14T19:46:53.027Z,8.85
2022-11-14T19:51:50.092Z,8.97
2022-11-14T19:56:46.916Z,8.94
2022-11-14T20:01:43.367Z,8.95
2022-11-14T20:06:41.514Z,9.12
2022-11-14T20:11:38.378Z,9.22
2022-11-14T20:16:36.848Z,9.31
2022-11-14T20:21:33.691Z,9.35
2022-11-14T20:26:30.239Z,9.22
2022-11-14T20:31:29.779Z,9.29
2022-11-14T20:36:31.921Z,9.33
2022-11-14T20:41:35.569Z,9.17
2022-11-14T20:46:32.130Z,9.09
2022-11-14T20:51:28.577Z,9.01
2022-11-14T20:56:25.432Z,9.00
2022-11-14T21:01:21.881Z,9.12
2022-11-14T21:06:18.533Z,9.17
2022-11-14T21:11:18.192Z,9.16
2022-11-14T21:16:17.464Z,9.19
2022-11-14T21:21:19.421Z,9.16
2022-11-14T21:26:18.991Z,9.22
2022-11-14T21:31:24.789Z,8.96
2022-11-14T21:41:37.713Z,8.57
2022-11-14T21:46:34.103Z,8.47
2022-11-14T21:51:30.516Z,8.27
2022-11-14T21:56:30.033Z,8.15
2022-11-14T22:01:44.986Z,7.86
2022-11-14T22:06:42.856Z,7.69
2022-11-14T22:11:40.269Z,7.60
2022-11-14T22:16:36.665Z,7.39
2022-11-14T22:21:33.030Z,7.42
2022-11-14T22:26:30.067Z,7.30
2022-11-14T22:31:26.498Z,7.20
2022-11-14T22:36:25.259Z,7.07
2022-11-14T22:41:32.609Z,6.98
2022-11-14T22:46:30.041Z,7.09
2022-11-14T22:51:27.961Z,7.26
2022-11-14T22:56:28.349Z,7.34
2022-11-14T23:01:31.045Z,7.55
2022-11-14T23:06:28.588Z,7.66
2022-11-14T23:11:28.018Z,7.68
2022-11-14T23:16:26.508Z,7.87
2022-11-14T23:21:26.067Z,7.91
2022-11-14T23:26:23.438Z,7.89
2022-11-14T23:31:20.520Z,7.94
2022-11-14T23:36:17.208Z,8.03
2022-11-14T23:41:19.124Z,8.24
2022-11-14T23:46:15.778Z,8.43
2022-11-14T23:51:13.851Z,8.46
2022-11-14T23:56:13.130Z,8.53
